sensor_id;sensor_type;location;lat;lon;timestamp;pressure;altitude;pressure_sealevel;temperature;humidity
74403;BME280;62837;51.082;13.744;2022-12-18T00:02:00;102020.87;;;-6.53;71.20
74403;BME280;62837;51.082;13.744;2022-12-18T00:04:31;102022.66;;;-6.53;71.09
74403;BME280;62837;51.082;13.744;2022-12-18T00:07:02;102021.61;;;-6.51;70.51
74403;BME280;62837;51.082;13.744;2022-12-18T00:09:33;102022.19;;;-6.49;70.54
74403;BME280;62837;51.082;13.744;2022-12-18T00:12:09;102016.85;;;-6.52;70.31
74403;BME280;62837;51.082;13.744;2022-12-18T00:14:47;102022.50;;;-6.56;70.25
74403;BME280;62837;51.082;13.744;2022-12-18T00:17:16;102033.06;;;-6.57;70.23
74403;BME280;62837;51.082;13.744;2022-12-18T00:19:47;102048.25;;;-6.57;70.13
74403;BME280;62837;51.082;13.744;2022-12-18T00:22:21;102052.69;;;-6.54;70.13
74403;BME280;62837;51.082;13.744;2022-12-18T00:24:50;102052.27;;;-6.50;69.94
74403;BME280;62837;51.082;13.744;2022-12-18T00:27:21;102051.33;;;-6.47;69.36
74403;BME280;62837;51.082;13.744;2022-12-18T00:29:51;102053.02;;;-6.51;68.70
74403;BME280;62837;51.082;13.744;2022-12-18T00:32:22;102052.00;;;-6.57;69.19
74403;BME280;62837;51.082;13.744;2022-12-18T00:34:52;102045.84;;;-6.56;69.40
74403;BME280;62837;51.082;13.744;2022-12-18T00:37:23;102047.42;;;-6.47;69.29
74403;BME280;62837;51.082;13.744;2022-12-18T00:39:54;102052.38;;;-6.44;69.63
74403;BME280;62837;51.082;13.744;2022-12-18T00:42:24;102054.30;;;-6.39;69.32
74403;BME280;62837;51.082;13.744;2022-12-18T00:45:13;102066.91;;;-6.36;69.14
74403;BME280;62837;51.082;13.744;2022-12-18T00:47:44;102074.23;;;-6.38;69.13
74403;BME280;62837;51.082;13.744;2022-12-18T00:50:16;102072.82;;;-6.43;69.31
74403;BME280;62837;51.082;13.744;2022-12-18T00:52:47;102072.66;;;-6.52;69.41
74403;BME280;62837;51.082;13.744;2022-12-18T00:55:18;102080.61;;;-6.58;69.43
74403;BME280;62837;51.082;13.744;2022-12-18T00:57:48;102084.40;;;-6.64;69.29
74403;BME280;62837;51.082;13.744;2022-12-18T01:00:21;102081.05;;;-6.72;69.53
74403;BME280;62837;51.082;13.744;2022-12-18T01:02:52;102077.65;;;-6.84;70.54
74403;BME280;62837;51.082;13.744;2022-12-18T01:05:23;102071.83;;;-6.85;71.44
74403;BME280;62837;51.082;13.744;2022-12-18T01:07:54;102068.02;;;-6.82;70.91
74403;BME280;62837;51.082;13.744;2022-12-18T01:10:26;102073.42;;;-6.88;70.53
74403;BME280;62837;51.082;13.744;2022-12-18T01:12:59;102079.20;;;-6.96;70.63
74403;BME280;62837;51.082;13.744;2022-12-18T01:15:30;102066.88;;;-7.04;70.63
74403;BME280;62837;51.082;13.744;2022-12-18T01:18:00;102082.77;;;-6.91;70.16
74403;BME280;62837;51.082;13.744;2022-12-18T01:20:33;102086.52;;;-6.88;69.65
74403;BME280;62837;51.082;13.744;2022-12-18T01:23:07;102084.23;;;-6.89;69.53
74403;BME280;62837;51.082;13.744;2022-12-18T01:25:38;102090.34;;;-6.92;69.16
74403;BME280;62837;51.082;13.744;2022-12-18T01:28:11;102103.35;;;-6.98;68.99
74403;BME280;62837;51.082;13.744;2022-12-18T01:30:42;102103.15;;;-7.08;69.00
74403;BME280;62837;51.082;13.744;2022-12-18T01:33:14;102101.89;;;-7.12;69.18
74403;BME280;62837;51.082;13.744;2022-12-18T01:35:45;102097.59;;;-7.12;69.25
74403;BME280;62837;51.082;13.744;2022-12-18T01:38:16;102102.73;;;-7.07;69.26
74403;BME280;62837;51.082;13.744;2022-12-18T01:40:47;102107.03;;;-7.00;69.26
74403;BME280;62837;51.082;13.744;2022-12-18T01:43:18;102101.89;;;-6.92;69.02
74403;BME280;62837;51.082;13.744;2022-12-18T01:45:49;102104.30;;;-6.90;69.00
74403;BME280;62837;51.082;13.744;2022-12-18T01:48:19;102103.53;;;-6.87;68.97
74403;BME280;62837;51.082;13.744;2022-12-18T01:50:50;102094.61;;;-6.90;69.26
74403;BME280;62837;51.082;13.744;2022-12-18T01:53:24;102091.73;;;-6.92;69.76
74403;BME280;62837;51.082;13.744;2022-12-18T01:55:56;102097.04;;;-6.97;69.91
74403;BME280;62837;51.082;13.744;2022-12-18T01:58:33;102102.17;;;-6.99;69.98
74403;BME280;62837;51.082;13.744;2022-12-18T02:01:06;102100.73;;;-6.98;69.58
74403;BME280;62837;51.082;13.744;2022-12-18T02:03:40;102103.80;;;-6.99;69.63
74403;BME280;62837;51.082;13.744;2022-12-18T02:06:15;102107.77;;;-7.00;69.53
74403;BME280;62837;51.082;13.744;2022-12-18T02:08:58;102102.91;;;-7.02;69.30
74403;BME280;62837;51.082;13.744;2022-12-18T02:11:40;102103.41;;;-7.01;68.97
74403;BME280;62837;51.082;13.744;2022-12-18T02:14:21;102105.77;;;-7.02;68.85
74403;BME280;62837;51.082;13.744;2022-12-18T02:17:01;102105.61;;;-7.00;68.59
74403;BME280;62837;51.082;13.744;2022-12-18T02:19:57;102104.06;;;-7.03;68.34
74403;BME280;62837;51.082;13.744;2022-12-18T02:22:40;102106.16;;;-7.15;68.14
74403;BME280;62837;51.082;13.744;2022-12-18T02:25:25;102102.30;;;-7.24;68.41
74403;BME280;62837;51.082;13.744;2022-12-18T02:27:59;102097.52;;;-7.32;68.34
74403;BME280;62837;51.082;13.744;2022-12-18T02:30:33;102102.18;;;-7.38;68.75
74403;BME280;62837;51.082;13.744;2022-12-18T02:33:07;102107.11;;;-7.40;69.17
74403;BME280;62837;51.082;13.744;2022-12-18T02:35:41;102111.87;;;-7.36;69.73
74403;BME280;62837;51.082;13.744;2022-12-18T02:38:15;102116.09;;;-7.28;69.11
74403;BME280;62837;51.082;13.744;2022-12-18T02:40:48;102118.23;;;-7.15;68.93
74403;BME280;62837;51.082;13.744;2022-12-18T02:43:19;102118.88;;;-7.03;68.50
74403;BME280;62837;51.082;13.744;2022-12-18T02:45:52;102116.71;;;-6.98;68.50
74403;BME280;62837;51.082;13.744;2022-12-18T02:48:25;102123.79;;;-6.94;68.49
74403;BME280;62837;51.082;13.744;2022-12-18T02:51:02;102122.48;;;-6.91;68.86
74403;BME280;62837;51.082;13.744;2022-12-18T02:53:38;102117.48;;;-6.88;68.97
74403;BME280;62837;51.082;13.744;2022-12-18T02:56:15;102116.08;;;-6.88;69.68
74403;BME280;62837;51.082;13.744;2022-12-18T02:58:52;102114.58;;;-6.87;70.82
74403;BME280;62837;51.082;13.744;2022-12-18T03:01:38;102114.89;;;-6.79;70.93
74403;BME280;62837;51.082;13.744;2022-12-18T03:04:16;102114.95;;;-6.80;70.23
74403;BME280;62837;51.082;13.744;2022-12-18T03:06:53;102116.16;;;-6.89;70.37
74403;BME280;62837;51.082;13.744;2022-12-18T03:09:31;102117.17;;;-6.99;70.29
74403;BME280;62837;51.082;13.744;2022-12-18T03:12:10;102117.52;;;-7.12;70.33
74403;BME280;62837;51.082;13.744;2022-12-18T03:14:58;102119.73;;;-7.21;70.57
74403;BME280;62837;51.082;13.744;2022-12-18T03:17:33;102120.36;;;-7.28;70.16
74403;BME280;62837;51.082;13.744;2022-12-18T03:20:08;102118.98;;;-7.33;70.17
74403;BME280;62837;51.082;13.744;2022-12-18T03:22:42;102121.86;;;-7.31;70.21
74403;BME280;62837;51.082;13.744;2022-12-18T03:25:16;102130.63;;;-7.24;69.89
74403;BME280;62837;51.082;13.744;2022-12-18T03:27:51;102132.65;;;-7.20;70.03
74403;BME280;62837;51.082;13.744;2022-12-18T03:30:25;102131.35;;;-7.14;69.50
74403;BME280;62837;51.082;13.744;2022-12-18T03:32:58;102127.37;;;-7.02;69.93
74403;BME280;62837;51.082;13.744;2022-12-18T03:35:35;102124.19;;;-6.95;69.60
74403;BME280;62837;51.082;13.744;2022-12-18T03:38:08;102124.36;;;-6.89;69.72
74403;BME280;62837;51.082;13.744;2022-12-18T03:40:48;102130.81;;;-6.90;69.71
74403;BME280;62837;51.082;13.744;2022-12-18T03:43:32;102138.43;;;-6.94;69.67
74403;BME280;62837;51.082;13.744;2022-12-18T03:46:11;102139.92;;;-7.06;69.60
74403;BME280;62837;51.082;13.744;2022-12-18T03:48:55;102136.52;;;-7.16;69.94
74403;BME280;62837;51.082;13.744;2022-12-18T03:51:36;102138.25;;;-7.15;70.88
74403;BME280;62837;51.082;13.744;2022-12-18T03:54:11;102142.34;;;-7.10;70.75
74403;BME280;62837;51.082;13.744;2022-12-18T03:56:48;102142.21;;;-7.11;71.51
74403;BME280;62837;51.082;13.744;2022-12-18T03:59:23;102136.33;;;-7.06;71.55
74403;BME280;62837;51.082;13.744;2022-12-18T04:01:57;102134.25;;;-6.96;71.27
74403;BME280;62837;51.082;13.744;2022-12-18T04:04:32;102129.86;;;-6.92;70.55
74403;BME280;62837;51.082;13.744;2022-12-18T04:07:05;102144.77;;;-6.81;70.37
74403;BME280;62837;51.082;13.744;2022-12-18T04:09:40;102144.98;;;-6.73;70.11
74403;BME280;62837;51.082;13.744;2022-12-18T04:12:12;102140.84;;;-6.65;70.29
74403;BME280;62837;51.082;13.744;2022-12-18T04:14:43;102143.70;;;-6.60;69.61
74403;BME280;62837;51.082;13.744;2022-12-18T04:17:15;102149.49;;;-6.64;68.90
74403;BME280;62837;51.082;13.744;2022-12-18T04:19:46;102158.43;;;-6.67;68.65
74403;BME280;62837;51.082;13.744;2022-12-18T04:22:17;102157.73;;;-6.67;68.63
74403;BME280;62837;51.082;13.744;2022-12-18T04:24:49;102156.68;;;-6.70;68.33
74403;BME280;62837;51.082;13.744;2022-12-18T04:27:27;102159.80;;;-6.79;68.05
74403;BME280;62837;51.082;13.744;2022-12-18T04:29:59;102160.27;;;-6.88;68.21
74403;BME280;62837;51.082;13.744;2022-12-18T04:32:31;102155.02;;;-6.97;68.16
74403;BME280;62837;51.082;13.744;2022-12-18T04:35:04;102149.55;;;-7.09;68.29
74403;BME280;62837;51.082;13.744;2022-12-18T04:37:40;102154.27;;;-7.15;68.38
74403;BME280;62837;51.082;13.744;2022-12-18T04:40:13;102160.51;;;-7.23;68.08
74403;BME280;62837;51.082;13.744;2022-12-18T04:42:43;102163.34;;;-7.36;68.22
74403;BME280;62837;51.082;13.744;2022-12-18T04:45:14;102167.36;;;-7.54;68.51
74403;BME280;62837;51.082;13.744;2022-12-18T04:47:45;102168.48;;;-7.63;68.86
74403;BME280;62837;51.082;13.744;2022-12-18T04:50:16;102172.48;;;-7.62;68.54
74403;BME280;62837;51.082;13.744;2022-12-18T04:52:47;102175.30;;;-7.61;68.48
74403;BME280;62837;51.082;13.744;2022-12-18T04:55:18;102177.42;;;-7.58;68.66
74403;BME280;62837;51.082;13.744;2022-12-18T04:57:49;102173.15;;;-7.50;68.67
74403;BME280;62837;51.082;13.744;2022-12-18T05:00:20;102166.60;;;-7.46;68.20
74403;BME280;62837;51.082;13.744;2022-12-18T05:02:51;102163.42;;;-7.40;68.38
74403;BME280;62837;51.082;13.744;2022-12-18T05:05:22;102167.36;;;-7.35;67.96
74403;BME280;62837;51.082;13.744;2022-12-18T05:07:53;102163.84;;;-7.36;67.95
74403;BME280;62837;51.082;13.744;2022-12-18T05:10:24;102160.70;;;-7.34;67.91
74403;BME280;62837;51.082;13.744;2022-12-18T05:12:55;102170.27;;;-7.28;67.43
74403;BME280;62837;51.082;13.744;2022-12-18T05:15:30;102173.58;;;-7.24;67.22
74403;BME280;62837;51.082;13.744;2022-12-18T05:18:02;102169.65;;;-7.24;66.88
74403;BME280;62837;51.082;13.744;2022-12-18T05:20:33;102165.55;;;-7.29;66.80
74403;BME280;62837;51.082;13.744;2022-12-18T05:23:04;102165.68;;;-7.42;67.39
74403;BME280;62837;51.082;13.744;2022-12-18T05:25:34;102168.14;;;-7.50;67.13
74403;BME280;62837;51.082;13.744;2022-12-18T05:28:05;102170.08;;;-7.58;67.33
74403;BME280;62837;51.082;13.744;2022-12-18T05:30:36;102171.63;;;-7.65;67.18
74403;BME280;62837;51.082;13.744;2022-12-18T05:33:07;102180.36;;;-7.82;67.27
74403;BME280;62837;51.082;13.744;2022-12-18T05:35:37;102176.99;;;-8.02;68.05
74403;BME280;62837;51.082;13.744;2022-12-18T05:38:08;102173.98;;;-8.10;68.16
74403;BME280;62837;51.082;13.744;2022-12-18T05:40:42;102169.70;;;-8.13;67.87
74403;BME280;62837;51.082;13.744;2022-12-18T05:43:13;102171.98;;;-8.21;68.03
74403;BME280;62837;51.082;13.744;2022-12-18T05:45:50;102178.61;;;-8.28;68.63
74403;BME280;62837;51.082;13.744;2022-12-18T05:48:22;102179.30;;;-8.24;69.16
74403;BME280;62837;51.082;13.744;2022-12-18T05:50:52;102173.71;;;-8.20;68.85
74403;BME280;62837;51.082;13.744;2022-12-18T05:53:23;102174.54;;;-8.13;69.06
74403;BME280;62837;51.082;13.744;2022-12-18T05:55:54;102176.55;;;-8.03;68.45
74403;BME280;62837;51.082;13.744;2022-12-18T05:58:24;102180.37;;;-8.01;68.51
74403;BME280;62837;51.082;13.744;2022-12-18T06:00:55;102184.39;;;-8.03;68.91
74403;BME280;62837;51.082;13.744;2022-12-18T06:03:26;102183.70;;;-8.01;69.05
74403;BME280;62837;51.082;13.744;2022-12-18T06:06:02;102187.58;;;-7.97;68.93
74403;BME280;62837;51.082;13.744;2022-12-18T06:08:33;102186.91;;;-7.92;69.01
74403;BME280;62837;51.082;13.744;2022-12-18T06:11:04;102183.99;;;-7.86;68.62
74403;BME280;62837;51.082;13.744;2022-12-18T06:13:34;102189.38;;;-7.70;72.56
74403;BME280;62837;51.082;13.744;2022-12-18T06:16:07;102185.94;;;-6.19;89.11
74403;BME280;62837;51.082;13.744;2022-12-18T06:18:41;102181.93;;;-5.56;78.92
74403;BME280;62837;51.082;13.744;2022-12-18T06:21:12;102183.56;;;-5.81;71.82
74403;BME280;62837;51.082;13.744;2022-12-18T06:23:43;102194.54;;;-6.06;69.24
74403;BME280;62837;51.082;13.744;2022-12-18T06:26:14;102198.61;;;-6.31;67.94
74403;BME280;62837;51.082;13.744;2022-12-18T06:28:45;102199.09;;;-6.56;67.26
74403;BME280;62837;51.082;13.744;2022-12-18T06:31:15;102198.73;;;-6.80;66.46
74403;BME280;62837;51.082;13.744;2022-12-18T06:33:46;102201.52;;;-7.02;66.67
74403;BME280;62837;51.082;13.744;2022-12-18T06:36:17;102203.59;;;-7.23;66.18
74403;BME280;62837;51.082;13.744;2022-12-18T06:38:49;102211.24;;;-7.47;66.15
74403;BME280;62837;51.082;13.744;2022-12-18T06:41:21;102213.44;;;-7.67;66.26
74403;BME280;62837;51.082;13.744;2022-12-18T06:43:52;102213.09;;;-7.76;66.39
74403;BME280;62837;51.082;13.744;2022-12-18T06:46:28;102209.73;;;-7.79;66.48
74403;BME280;62837;51.082;13.744;2022-12-18T06:48:58;102211.31;;;-7.81;66.28
74403;BME280;62837;51.082;13.744;2022-12-18T06:51:29;102214.44;;;-7.89;66.44
74403;BME280;62837;51.082;13.744;2022-12-18T06:54:00;102218.29;;;-7.96;66.67
74403;BME280;62837;51.082;13.744;2022-12-18T06:56:32;102220.67;;;-8.03;67.07
74403;BME280;62837;51.082;13.744;2022-12-18T06:59:02;102224.40;;;-8.11;67.18
74403;BME280;62837;51.082;13.744;2022-12-18T07:01:33;102222.73;;;-8.21;67.69
74403;BME280;62837;51.082;13.744;2022-12-18T07:04:04;102233.41;;;-8.28;67.81
74403;BME280;62837;51.082;13.744;2022-12-18T07:06:35;102234.40;;;-8.29;68.16
74403;BME280;62837;51.082;13.744;2022-12-18T07:09:06;102235.28;;;-8.17;68.17
74403;BME280;62837;51.082;13.744;2022-12-18T07:11:37;102234.51;;;-8.08;67.67
74403;BME280;62837;51.082;13.744;2022-12-18T07:14:07;102240.63;;;-7.95;67.39
74403;BME280;62837;51.082;13.744;2022-12-18T07:16:38;102240.19;;;-7.93;67.03
74403;BME280;62837;51.082;13.744;2022-12-18T07:19:10;102238.20;;;-7.90;67.27
74403;BME280;62837;51.082;13.744;2022-12-18T07:21:40;102238.73;;;-7.87;67.16
74403;BME280;62837;51.082;13.744;2022-12-18T07:24:13;102236.79;;;-7.85;67.38
74403;BME280;62837;51.082;13.744;2022-12-18T07:26:43;102238.42;;;-7.85;67.59
74403;BME280;62837;51.082;13.744;2022-12-18T07:29:16;102240.98;;;-7.86;70.24
74403;BME280;62837;51.082;13.744;2022-12-18T07:31:46;102240.21;;;-7.80;70.34
74403;BME280;62837;51.082;13.744;2022-12-18T07:34:17;102239.39;;;-7.75;69.80
74403;BME280;62837;51.082;13.744;2022-12-18T07:36:48;102246.61;;;-7.74;67.97
74403;BME280;62837;51.082;13.744;2022-12-18T07:39:19;102252.07;;;-7.76;67.20
74403;BME280;62837;51.082;13.744;2022-12-18T07:41:50;102256.86;;;-7.67;66.98
74403;BME280;62837;51.082;13.744;2022-12-18T07:44:35;102262.20;;;-7.48;66.32
74403;BME280;62837;51.082;13.744;2022-12-18T07:47:06;102258.98;;;-7.30;65.69
74403;BME280;62837;51.082;13.744;2022-12-18T07:49:40;102260.26;;;-7.09;65.57
74403;BME280;62837;51.082;13.744;2022-12-18T07:52:11;102263.60;;;-6.95;65.36
74403;BME280;62837;51.082;13.744;2022-12-18T07:54:42;102267.06;;;-6.80;65.38
74403;BME280;62837;51.082;13.744;2022-12-18T07:57:19;102268.44;;;-6.64;65.61
74403;BME280;62837;51.082;13.744;2022-12-18T08:00:12;102267.14;;;-6.47;65.83
74403;BME280;62837;51.082;13.744;2022-12-18T08:02:43;102269.50;;;-6.32;65.56
74403;BME280;62837;51.082;13.744;2022-12-18T08:05:14;102260.54;;;-6.16;65.19
74403;BME280;62837;51.082;13.744;2022-12-18T08:07:45;102256.74;;;-6.05;64.56
74403;BME280;62837;51.082;13.744;2022-12-18T08:10:16;102250.24;;;-5.96;64.75
74403;BME280;62837;51.082;13.744;2022-12-18T08:12:50;102249.98;;;-5.83;64.52
74403;BME280;62837;51.082;13.744;2022-12-18T08:15:21;102245.45;;;-5.70;64.41
74403;BME280;62837;51.082;13.744;2022-12-18T08:17:52;102238.63;;;-5.54;64.10
74403;BME280;62837;51.082;13.744;2022-12-18T08:20:22;102230.48;;;-5.43;63.91
74403;BME280;62837;51.082;13.744;2022-12-18T08:22:53;102237.21;;;-5.35;64.01
74403;BME280;62837;51.082;13.744;2022-12-18T08:25:24;102233.87;;;-5.26;64.10
74403;BME280;62837;51.082;13.744;2022-12-18T08:27:55;102233.59;;;-5.10;64.19
74403;BME280;62837;51.082;13.744;2022-12-18T08:30:26;102237.16;;;-5.01;64.19
74403;BME280;62837;51.082;13.744;2022-12-18T08:32:57;102240.75;;;-4.89;63.96
74403;BME280;62837;51.082;13.744;2022-12-18T08:35:28;102236.11;;;-4.79;63.77
74403;BME280;62837;51.082;13.744;2022-12-18T08:38:06;102238.73;;;-4.59;63.64
74403;BME280;62837;51.082;13.744;2022-12-18T08:40:37;102237.02;;;-4.42;63.79
74403;BME280;62837;51.082;13.744;2022-12-18T08:43:09;102231.80;;;-4.23;63.41
74403;BME280;62837;51.082;13.744;2022-12-18T08:45:58;102233.93;;;-4.05;62.75
74403;BME280;62837;51.082;13.744;2022-12-18T08:48:29;102237.46;;;-4.00;62.89
74403;BME280;62837;51.082;13.744;2022-12-18T08:51:00;102234.32;;;-3.87;63.22
74403;BME280;62837;51.082;13.744;2022-12-18T08:53:31;102235.48;;;-3.68;62.60
74403;BME280;62837;51.082;13.744;2022-12-18T08:56:05;102232.52;;;-3.49;62.76
74403;BME280;62837;51.082;13.744;2022-12-18T08:58:36;102240.41;;;-3.29;62.35
74403;BME280;62837;51.082;13.744;2022-12-18T09:01:09;102245.84;;;-3.06;62.03
74403;BME280;62837;51.082;13.744;2022-12-18T09:03:40;102246.08;;;-2.85;61.90
74403;BME280;62837;51.082;13.744;2022-12-18T09:06:14;102249.51;;;-2.64;61.73
74403;BME280;62837;51.082;13.744;2022-12-18T09:08:46;102237.39;;;-2.48;61.52
74403;BME280;62837;51.082;13.744;2022-12-18T09:11:20;102233.02;;;-2.35;60.93
74403;BME280;62837;51.082;13.744;2022-12-18T09:13:52;102233.44;;;-2.21;60.87
74403;BME280;62837;51.082;13.744;2022-12-18T09:16:25;102238.75;;;-2.15;60.22
74403;BME280;62837;51.082;13.744;2022-12-18T09:19:01;102246.30;;;-2.16;60.26
74403;BME280;62837;51.082;13.744;2022-12-18T09:21:34;102253.92;;;-2.19;60.99
74403;BME280;62837;51.082;13.744;2022-12-18T09:24:08;102258.27;;;-2.15;60.87
74403;BME280;62837;51.082;13.744;2022-12-18T09:26:42;102265.01;;;-2.12;60.66
74403;BME280;62837;51.082;13.744;2022-12-18T09:29:16;102267.19;;;-2.12;60.84
74403;BME280;62837;51.082;13.744;2022-12-18T09:31:47;102270.38;;;-2.16;60.63
74403;BME280;62837;51.082;13.744;2022-12-18T09:34:19;102268.52;;;-2.18;61.18
74403;BME280;62837;51.082;13.744;2022-12-18T09:36:51;102267.64;;;-2.13;60.97
74403;BME280;62837;51.082;13.744;2022-12-18T09:39:22;102269.58;;;-2.04;61.31
74403;BME280;62837;51.082;13.744;2022-12-18T09:41:54;102268.33;;;-1.96;61.64
74403;BME280;62837;51.082;13.744;2022-12-18T09:44:28;102262.39;;;-1.92;61.62
74403;BME280;62837;51.082;13.744;2022-12-18T09:47:08;102259.70;;;-1.82;61.63
74403;BME280;62837;51.082;13.744;2022-12-18T09:49:42;102256.63;;;-1.69;61.93
74403;BME280;62837;51.082;13.744;2022-12-18T09:52:17;102256.66;;;-1.56;61.85
74403;BME280;62837;51.082;13.744;2022-12-18T09:54:53;102247.73;;;-1.40;62.02
74403;BME280;62837;51.082;13.744;2022-12-18T09:57:26;102241.45;;;-1.26;62.22
74403;BME280;62837;51.082;13.744;2022-12-18T10:00:02;102241.51;;;-1.17;62.06
74403;BME280;62837;51.082;13.744;2022-12-18T10:02:59;102231.70;;;-1.06;62.91
74403;BME280;62837;51.082;13.744;2022-12-18T10:05:37;102227.64;;;-0.95;63.23
74403;BME280;62837;51.082;13.744;2022-12-18T10:08:16;102225.73;;;-0.82;63.23
74403;BME280;62837;51.082;13.744;2022-12-18T10:10:52;102216.45;;;-0.68;63.30
74403;BME280;62837;51.082;13.744;2022-12-18T10:13:29;102206.68;;;-0.48;63.04
74403;BME280;62837;51.082;13.744;2022-12-18T10:16:08;102197.77;;;-0.33;62.42
74403;BME280;62837;51.082;13.744;2022-12-18T10:18:54;102190.33;;;-0.27;62.05
74403;BME280;62837;51.082;13.744;2022-12-18T10:21:34;102191.74;;;-0.18;61.99
74403;BME280;62837;51.082;13.744;2022-12-18T10:24:14;102188.16;;;-0.09;61.75
74403;BME280;62837;51.082;13.744;2022-12-18T10:26:49;102186.81;;;-0.02;61.39
74403;BME280;62837;51.082;13.744;2022-12-18T10:29:20;102180.80;;;-0.04;61.05
74403;BME280;62837;51.082;13.744;2022-12-18T10:31:51;102180.11;;;-0.04;61.05
74403;BME280;62837;51.082;13.744;2022-12-18T10:34:23;102173.76;;;-0.07;60.93
74403;BME280;62837;51.082;13.744;2022-12-18T10:36:54;102166.33;;;-0.08;60.95
74403;BME280;62837;51.082;13.744;2022-12-18T10:39:25;102163.05;;;-0.08;61.03
74403;BME280;62837;51.082;13.744;2022-12-18T10:42:11;102159.27;;;-0.06;60.83
74403;BME280;62837;51.082;13.744;2022-12-18T10:44:43;102148.83;;;-0.06;60.78
74403;BME280;62837;51.082;13.744;2022-12-18T10:47:15;102147.52;;;-0.06;60.69
74403;BME280;62837;51.082;13.744;2022-12-18T10:49:52;102148.58;;;-0.09;60.56
74403;BME280;62837;51.082;13.744;2022-12-18T10:52:26;102146.54;;;-0.14;60.65
74403;BME280;62837;51.082;13.744;2022-12-18T10:55:01;102151.17;;;-0.21;60.29
74403;BME280;62837;51.082;13.744;2022-12-18T10:57:35;102158.65;;;-0.31;60.36
74403;BME280;62837;51.082;13.744;2022-12-18T11:00:30;102154.96;;;-0.36;60.69
74403;BME280;62837;51.082;13.744;2022-12-18T11:03:01;102153.20;;;-0.36;60.97
74403;BME280;62837;51.082;13.744;2022-12-18T11:05:33;102154.10;;;-0.34;61.08
74403;BME280;62837;51.082;13.744;2022-12-18T11:08:11;102150.16;;;-0.33;60.63
74403;BME280;62837;51.082;13.744;2022-12-18T11:10:50;102155.23;;;-0.33;60.60
74403;BME280;62837;51.082;13.744;2022-12-18T11:13:22;102143.68;;;-0.33;60.71
74403;BME280;62837;51.082;13.744;2022-12-18T11:15:53;102140.40;;;-0.33;60.74
74403;BME280;62837;51.082;13.744;2022-12-18T11:18:28;102137.19;;;-0.29;60.58
74403;BME280;62837;51.082;13.744;2022-12-18T11:21:04;102123.79;;;-0.32;60.26
74403;BME280;62837;51.082;13.744;2022-12-18T11:23:43;102123.14;;;-0.33;60.36
74403;BME280;62837;51.082;13.744;2022-12-18T11:26:16;102118.95;;;-0.33;60.45
74403;BME280;62837;51.082;13.744;2022-12-18T11:28:50;102118.56;;;-0.32;60.51
74403;BME280;62837;51.082;13.744;2022-12-18T11:31:26;102120.66;;;-0.30;60.41
74403;BME280;62837;51.082;13.744;2022-12-18T11:34:04;102128.55;;;-0.31;60.24
74403;BME280;62837;51.082;13.744;2022-12-18T11:36:59;102125.40;;;-0.30;60.29
74403;BME280;62837;51.082;13.744;2022-12-18T11:39:31;102125.70;;;-0.30;60.23
74403;BME280;62837;51.082;13.744;2022-12-18T11:42:09;102119.45;;;-0.32;60.07
74403;BME280;62837;51.082;13.744;2022-12-18T11:44:45;102114.59;;;-0.36;60.24
74403;BME280;62837;51.082;13.744;2022-12-18T11:47:29;102109.53;;;-0.39;60.42
74403;BME280;62837;51.082;13.744;2022-12-18T11:50:10;102113.31;;;-0.49;60.74
74403;BME280;62837;51.082;13.744;2022-12-18T11:52:43;102120.05;;;-0.54;60.74
74403;BME280;62837;51.082;13.744;2022-12-18T11:55:21;102121.67;;;-0.52;60.88
74403;BME280;62837;51.082;13.744;2022-12-18T11:57:59;102124.98;;;-0.53;60.47
74403;BME280;62837;51.082;13.744;2022-12-18T12:00:32;102134.02;;;-0.51;60.86
74403;BME280;62837;51.082;13.744;2022-12-18T12:03:34;102130.29;;;-0.50;60.80
74403;BME280;62837;51.082;13.744;2022-12-18T12:06:14;102123.87;;;-0.56;60.59
74403;BME280;62837;51.082;13.744;2022-12-18T12:08:55;102124.67;;;-0.59;60.90
74403;BME280;62837;51.082;13.744;2022-12-18T12:11:37;102130.81;;;-0.63;61.10
74403;BME280;62837;51.082;13.744;2022-12-18T12:14:38;102134.94;;;-0.63;60.87
74403;BME280;62837;51.082;13.744;2022-12-18T12:17:18;102134.80;;;-0.63;60.82
74403;BME280;62837;51.082;13.744;2022-12-18T12:19:59;102140.77;;;-0.65;61.25
74403;BME280;62837;51.082;13.744;2022-12-18T12:22:37;102148.13;;;-0.69;61.11
74403;BME280;62837;51.082;13.744;2022-12-18T12:25:25;102151.23;;;-0.73;60.98
74403;BME280;62837;51.082;13.744;2022-12-18T12:28:11;102151.02;;;-0.76;61.13
74403;BME280;62837;51.082;13.744;2022-12-18T12:31:00;102148.29;;;-0.80;61.20
74403;BME280;62837;51.082;13.744;2022-12-18T12:33:42;102152.73;;;-0.85;61.15
74403;BME280;62837;51.082;13.744;2022-12-18T12:36:22;102157.95;;;-0.87;61.36
74403;BME280;62837;51.082;13.744;2022-12-18T12:38:59;102172.27;;;-0.90;61.56
74403;BME280;62837;51.082;13.744;2022-12-18T12:41:33;102187.36;;;-0.94;61.47
74403;BME280;62837;51.082;13.744;2022-12-18T12:44:26;102183.77;;;-1.01;61.45
74403;BME280;62837;51.082;13.744;2022-12-18T12:47:04;102188.16;;;-1.08;61.66
74403;BME280;62837;51.082;13.744;2022-12-18T12:49:38;102179.66;;;-1.08;61.68
74403;BME280;62837;51.082;13.744;2022-12-18T12:52:16;102164.45;;;-1.13;61.94
74403;BME280;62837;51.082;13.744;2022-12-18T12:54:49;102163.42;;;-1.17;62.13
74403;BME280;62837;51.082;13.744;2022-12-18T12:57:29;102159.39;;;-1.22;62.03
74403;BME280;62837;51.082;13.744;2022-12-18T13:00:05;102160.91;;;-1.27;62.07
74403;BME280;62837;51.082;13.744;2022-12-18T13:02:42;102160.67;;;-1.34;62.25
74403;BME280;62837;51.082;13.744;2022-12-18T13:05:21;102159.23;;;-1.40;62.45
74403;BME280;62837;51.082;13.744;2022-12-18T13:07:54;102148.45;;;-1.48;62.34
74403;BME280;62837;51.082;13.744;2022-12-18T13:10:36;102147.92;;;-1.54;62.46
74403;BME280;62837;51.082;13.744;2022-12-18T13:13:10;102144.91;;;-1.61;62.85
74403;BME280;62837;51.082;13.744;2022-12-18T13:15:44;102148.48;;;-1.68;62.68
74403;BME280;62837;51.082;13.744;2022-12-18T13:18:20;102144.95;;;-1.77;62.95